createdAt,value
2018-07-23T00:00:37.640Z,98338.87
2018-07-23T00:03:07.307Z,98338.73
2018-07-23T00:05:36.780Z,98341.71
2018-07-23T00:08:06.220Z,98344.05
2018-07-23T00:10:35.749Z,98344.81
2018-07-23T00:13:05.487Z,98335.25
2018-07-23T00:15:35.318Z,98337.80
2018-07-23T00:18:04.846Z,98339.94
2018-07-23T00:20:34.285Z,98338.61
2018-07-23T00:23:03.801Z,98342.58
2018-07-23T00:25:33.330Z,98341.41
2018-07-23T00:28:02.827Z,98334.69
2018-07-23T00:30:32.288Z,98334.59
2018-07-23T00:33:01.769Z,98340.60
2018-07-23T00:35:31.191Z,98340.55
2018-07-23T00:38:00.757Z,98340.00
2018-07-23T00:40:30.212Z,98340.24
2018-07-23T00:42:59.628Z,98337.81
2018-07-23T00:45:29.048Z,98338.92
2018-07-23T00:47:58.587Z,98332.61
2018-07-23T00:50:28.600Z,98344.93
2018-07-23T00:52:58.077Z,98335.41
2018-07-23T00:55:27.623Z,98335.95
2018-07-23T00:57:57.037Z,98340.06
2018-07-23T01:00:26.455Z,98331.77
2018-07-23T01:02:55.926Z,98328.91
2018-07-23T01:05:26.580Z,98330.95
2018-07-23T01:07:56.023Z,98331.91
2018-07-23T01:10:26.178Z,98331.33
2018-07-23T01:12:55.619Z,98335.74
2018-07-23T01:15:25.112Z,98337.06
2018-07-23T01:17:54.577Z,98335.38
2018-07-23T01:20:24.051Z,98342.80
2018-07-23T01:22:54.127Z,98343.81
2018-07-23T01:25:23.635Z,98346.70
2018-07-23T01:27:53.129Z,98351.08
2018-07-23T01:30:22.618Z,98346.23
2018-07-23T01:32:52.984Z,98346.03
2018-07-23T01:35:22.468Z,98346.75
2018-07-23T01:37:51.968Z,98348.16
2018-07-23T01:40:21.395Z,98342.78
2018-07-23T01:42:50.807Z,98343.47
2018-07-23T01:45:20.296Z,98342.34
2018-07-23T01:47:49.717Z,98337.81
2018-07-23T01:50:19.168Z,98343.17
2018-07-23T01:52:48.594Z,98346.45
2018-07-23T01:55:18.072Z,98348.52
2018-07-23T01:57:47.572Z,98348.36
2018-07-23T02:00:17.022Z,98345.51
2018-07-23T02:02:46.477Z,98343.67
2018-07-23T02:05:15.981Z,98353.36
2018-07-23T02:07:45.414Z,98347.78
2018-07-23T02:10:14.955Z,98346.30
2018-07-23T02:12:44.376Z,98345.41
2018-07-23T02:15:13.838Z,98347.04
2018-07-23T02:17:43.242Z,98351.38
2018-07-23T02:20:12.713Z,98348.05
2018-07-23T02:22:42.176Z,98350.33
2018-07-23T02:25:11.613Z,98346.60
2018-07-23T02:27:41.067Z,98352.59
2018-07-23T02:30:10.471Z,98351.58
2018-07-23T02:32:40.330Z,98355.34
2018-07-23T02:35:09.883Z,98349.68
2018-07-23T02:37:39.403Z,98349.30
2018-07-23T02:40:08.916Z,98350.49
2018-07-23T02:42:38.411Z,98356.66
2018-07-23T02:45:07.932Z,98352.39
2018-07-23T02:47:38.182Z,98359.43
2018-07-23T02:50:07.792Z,98359.72
2018-07-23T02:52:37.912Z,98361.19
2018-07-23T02:55:07.351Z,98360.17
2018-07-23T02:57:36.788Z,98363.52
2018-07-23T03:00:07.111Z,98360.81
2018-07-23T03:02:36.593Z,98356.65
2018-07-23T03:05:06.019Z,98363.75
2018-07-23T03:07:36.306Z,98360.44
2018-07-23T03:10:06.520Z,98360.42
2018-07-23T03:12:36.100Z,98365.47
2018-07-23T03:15:07.148Z,98359.55
2018-07-23T03:17:36.615Z,98364.70
2018-07-23T03:20:05.792Z,98371.06
2018-07-23T03:22:35.286Z,98376.88
2018-07-23T03:25:04.874Z,98374.44
2018-07-23T03:27:34.401Z,98372.92
2018-07-23T03:30:04.508Z,98377.90
2018-07-23T03:32:33.921Z,98373.77
2018-07-23T03:35:03.369Z,98384.25
2018-07-23T03:37:32.788Z,98377.72
2018-07-23T03:40:02.234Z,98375.01
2018-07-23T03:42:31.789Z,98376.26
2018-07-23T03:45:01.224Z,98379.98
2018-07-23T03:47:30.624Z,98382.11
2018-07-23T03:50:00.061Z,98384.32
2018-07-23T03:52:29.601Z,98383.73
2018-07-23T03:54:59.069Z,98382.34
2018-07-23T03:57:28.581Z,98383.44
2018-07-23T03:59:58.061Z,98387.63
2018-07-23T04:02:27.513Z,98391.48
2018-07-23T04:04:56.952Z,98394.12
2018-07-23T04:07:26.593Z,98395.75
2018-07-23T04:09:57.491Z,98393.84
2018-07-23T04:12:26.883Z,98393.84
2018-07-23T04:14:56.379Z,98401.45
2018-07-23T04:17:25.532Z,98394.93
2018-07-23T04:19:55.014Z,98392.80
2018-07-23T04:22:25.538Z,98393.23
2018-07-23T04:24:54.947Z,98395.22
2018-07-23T04:27:24.376Z,98403.03
2018-07-23T04:29:53.812Z,98404.34
2018-07-23T04:32:23.305Z,98402.59
2018-07-23T04:34:52.913Z,98399.25
2018-07-23T04:37:22.451Z,98398.00
2018-07-23T04:39:51.888Z,98401.38
2018-07-23T04:42:21.325Z,98407.04
2018-07-23T04:44:50.733Z,98411.58
2018-07-23T04:47:20.757Z,98406.86
2018-07-23T04:49:50.219Z,98411.05
2018-07-23T04:52:20.864Z,98418.28
2018-07-23T04:54:50.280Z,98421.92
2018-07-23T04:57:19.713Z,98431.78
2018-07-23T04:59:49.164Z,98424.44
2018-07-23T05:02:18.569Z,98422.62
2018-07-23T05:04:48.048Z,98429.22
2018-07-23T05:07:17.475Z,98424.37
2018-07-23T05:09:46.904Z,98428.83
2018-07-23T05:12:16.382Z,98435.73
2018-07-23T05:14:45.790Z,98432.05
2018-07-23T05:17:15.284Z,98439.77
2018-07-23T05:19:45.552Z,98440.48
2018-07-23T05:22:15.078Z,98438.14
2018-07-23T05:24:45.097Z,98439.65
2018-07-23T05:27:14.497Z,98442.95
2018-07-23T05:29:43.903Z,98429.34
2018-07-23T05:32:13.424Z,98433.97
2018-07-23T05:34:42.812Z,98435.52
2018-07-23T05:37:12.227Z,98436.17
2018-07-23T05:39:41.663Z,98433.33
2018-07-23T05:42:11.139Z,98438.48
2018-07-23T05:44:41.021Z,98441.00
2018-07-23T05:47:10.449Z,98435.28
2018-07-23T05:49:39.897Z,98439.73
2018-07-23T05:52:09.281Z,98438.55
2018-07-23T05:54:38.415Z,98440.94
2018-07-23T05:57:07.895Z,98440.30
2018-07-23T05:59:37.095Z,98439.35
2018-07-23T06:02:06.649Z,98451.81
2018-07-23T06:04:36.091Z,98451.38
2018-07-23T06:07:05.530Z,98454.13
2018-07-23T06:09:35.562Z,98455.82
2018-07-23T06:12:05.695Z,98457.52
2018-07-23T06:14:35.078Z,98454.70
2018-07-23T06:17:04.663Z,98460.67
2018-07-23T06:19:35.117Z,98459.52
2018-07-23T06:22:04.665Z,98461.48
2018-07-23T06:24:34.113Z,98457.38
2018-07-23T06:27:03.864Z,98454.40
2018-07-23T06:29:33.310Z,98461.14
2018-07-23T06:32:02.702Z,98470.83
2018-07-23T06:34:32.170Z,98462.25
2018-07-23T06:37:01.622Z,98466.14
2018-07-23T06:39:31.239Z,98462.84
2018-07-23T06:42:00.364Z,98465.62
2018-07-23T06:44:29.774Z,98467.94
2018-07-23T06:47:00.305Z,98467.05
2018-07-23T06:49:30.289Z,98468.53
2018-07-23T06:51:59.430Z,98467.34
2018-07-23T06:54:28.864Z,98468.52
2018-07-23T06:56:58.336Z,98458.59
2018-07-23T06:59:27.775Z,98461.36
2018-07-23T07:01:58.284Z,98457.75
2018-07-23T07:04:27.677Z,98465.60
2018-07-23T07:06:57.099Z,98464.42
2018-07-23T07:09:26.546Z,98466.17
2018-07-23T07:11:55.680Z,98462.34
2018-07-23T07:14:28.381Z,98464.30
2018-07-23T07:16:58.157Z,98462.31
2018-07-23T07:19:27.722Z,98459.56
2018-07-23T07:21:57.160Z,98459.97
2018-07-23T07:24:26.560Z,98462.55
2018-07-23T07:26:56.044Z,98458.48
2018-07-23T07:29:25.478Z,98455.75
2018-07-23T07:31:55.473Z,98456.97
2018-07-23T07:34:24.991Z,98461.95
2018-07-23T07:36:54.441Z,98458.67
2018-07-23T07:39:23.976Z,98463.05
2018-07-23T07:41:53.420Z,98458.14
2018-07-23T07:44:22.868Z,98455.97
2018-07-23T07:46:52.357Z,98458.77
2018-07-23T07:49:21.785Z,98452.83
2018-07-23T07:51:51.791Z,98451.93
2018-07-23T07:54:21.204Z,98452.61
2018-07-23T07:56:50.629Z,98448.27
2018-07-23T07:59:20.128Z,98449.18
2018-07-23T08:01:49.587Z,98447.32
2018-07-23T08:04:19.181Z,98449.55
2018-07-23T08:06:48.311Z,98449.41
2018-07-23T08:09:17.856Z,98443.69
2018-07-23T08:11:47.329Z,98443.03
2018-07-23T08:14:16.780Z,98442.38
2018-07-23T08:16:46.310Z,98443.48
2018-07-23T08:19:15.553Z,98446.54
2018-07-23T08:21:44.988Z,98443.96
2018-07-23T08:24:15.073Z,98446.76
2018-07-23T08:26:45.080Z,98443.43
2018-07-23T08:29:14.605Z,98444.93
2018-07-23T08:31:44.202Z,98437.16
2018-07-23T08:34:13.554Z,98443.71
2018-07-23T08:36:42.999Z,98440.38
2018-07-23T08:39:12.767Z,98439.11
2018-07-23T08:41:42.181Z,98437.87
2018-07-23T08:44:11.605Z,98434.23
2018-07-23T08:46:41.062Z,98436.20
2018-07-23T08:49:10.468Z,98439.22
2018-07-23T08:51:39.930Z,98439.85
2018-07-23T08:54:09.381Z,98439.94
2018-07-23T08:56:38.865Z,98440.48
2018-07-23T08:59:08.932Z,98438.20
2018-07-23T09:01:38.333Z,98437.77
2018-07-23T09:04:07.516Z,98440.80
2018-07-23T09:06:36.958Z,98441.40
2018-07-23T09:09:10.345Z,98441.45
2018-07-23T09:11:40.427Z,98439.16
2018-07-23T09:14:10.430Z,98442.44
2018-07-23T09:16:40.010Z,98442.25
2018-07-23T09:19:09.447Z,98438.28
2018-07-23T09:21:38.752Z,98440.73
2018-07-23T09:24:08.230Z,98440.78
2018-07-23T09:26:37.698Z,98437.95
2018-07-23T09:29:07.147Z,98436.73
2018-07-23T09:31:36.526Z,98430.52
2018-07-23T09:34:06.307Z,98431.16
2018-07-23T09:36:35.802Z,98432.94
2018-07-23T09:39:08.298Z,98429.55
2018-07-23T09:41:37.793Z,98424.59
2018-07-23T09:44:07.455Z,98422.03
2018-07-23T09:46:36.907Z,98421.03
2018-07-23T09:49:07.013Z,98424.05
2018-07-23T09:51:36.473Z,98421.50
2018-07-23T09:54:06.023Z,98409.89
2018-07-23T09:56:35.535Z,98420.34
2018-07-23T09:59:05.263Z,98424.92
2018-07-23T10:01:34.690Z,98424.70
2018-07-23T10:04:04.124Z,98417.27
2018-07-23T10:06:33.569Z,98415.93
2018-07-23T10:09:03.105Z,98417.55
2018-07-23T10:11:33.068Z,98419.69
2018-07-23T10:14:02.573Z,98417.58
2018-07-23T10:16:32.151Z,98411.44
2018-07-23T10:19:01.586Z,98411.16
2018-07-23T10:21:31.009Z,98414.39
2018-07-23T10:24:00.412Z,98407.19
2018-07-23T10:26:29.887Z,98405.32
2018-07-23T10:29:00.006Z,98404.83
2018-07-23T10:31:30.005Z,98405.34
2018-07-23T10:33:59.476Z,98407.74
2018-07-23T10:36:28.930Z,98400.81
2018-07-23T10:38:58.412Z,98399.51
2018-07-23T10:41:28.865Z,98399.78
2018-07-23T10:43:59.122Z,98404.59
2018-07-23T10:46:28.562Z,98388.84
2018-07-23T10:48:57.978Z,98396.34
2018-07-23T10:51:27.446Z,98397.12
2018-07-23T10:53:56.850Z,98402.22
2018-07-23T10:56:26.375Z,98399.82
2018-07-23T10:58:55.859Z,98396.89
2018-07-23T11:01:25.296Z,98397.19
2018-07-23T11:03:56.081Z,98396.06
2018-07-23T11:06:25.508Z,98393.95
2018-07-23T11:08:54.961Z,98398.22
2018-07-23T11:11:24.406Z,98400.64
2018-07-23T11:13:53.849Z,98393.69
2018-07-23T11:16:23.353Z,98397.95
2018-07-23T11:18:52.771Z,98394.80
2018-07-23T11:21:22.310Z,98401.49
2018-07-23T11:23:51.782Z,98397.73
2018-07-23T11:26:21.246Z,98395.07
2018-07-23T11:28:51.265Z,98392.66
2018-07-23T11:31:20.748Z,98389.98
2018-07-23T11:33:50.193Z,98387.84
2018-07-23T11:36:19.577Z,98393.21
2018-07-23T11:38:49.059Z,98394.27
2018-07-23T11:41:18.478Z,98392.91
2018-07-23T11:43:47.945Z,98386.52
2018-07-23T11:46:24.984Z,98387.02
2018-07-23T11:48:47.090Z,98390.24
2018-07-23T11:51:16.483Z,98383.01
2018-07-23T11:53:45.964Z,98383.03
2018-07-23T11:56:15.356Z,98384.89
2018-07-23T11:58:44.845Z,98387.82
2018-07-23T12:01:14.304Z,98379.28
2018-07-23T12:03:43.738Z,98378.20
2018-07-23T12:06:13.174Z,98374.48
2018-07-23T12:08:42.594Z,98371.53
2018-07-23T12:11:12.061Z,98366.71
2018-07-23T12:13:41.578Z,98370.19
2018-07-23T12:16:11.057Z,98365.89
2018-07-23T12:18:40.467Z,98364.28
2018-07-23T12:21:09.882Z,98364.55
2018-07-23T12:23:40.006Z,98357.06
2018-07-23T12:26:09.558Z,98356.25
2018-07-23T12:28:38.973Z,98351.71
2018-07-23T12:31:08.417Z,98347.13
2018-07-23T12:33:37.882Z,98347.94
2018-07-23T12:36:08.965Z,98349.27
2018-07-23T12:38:38.404Z,98352.45
2018-07-23T12:41:07.816Z,98351.33
2018-07-23T12:43:37.255Z,98350.79
2018-07-23T12:46:06.715Z,98352.92
2018-07-23T12:48:36.162Z,98349.92
2018-07-23T12:51:05.629Z,98348.30
2018-07-23T12:53:36.060Z,98342.94
2018-07-23T12:56:05.520Z,98341.84
2018-07-23T12:58:34.977Z,98342.59
2018-07-23T13:01:04.494Z,98335.58
2018-07-23T13:03:35.101Z,98339.85
2018-07-23T13:06:04.550Z,98334.16
2018-07-23T13:08:34.034Z,98337.30
2018-07-23T13:11:03.498Z,98334.00
2018-07-23T13:13:33.834Z,98326.98
2018-07-23T13:16:03.297Z,98333.92
2018-07-23T13:18:32.817Z,98343.02
2018-07-23T13:21:02.266Z,98331.66
2018-07-23T13:23:31.702Z,98338.91
2018-07-23T13:26:01.189Z,98339.37
2018-07-23T13:28:30.584Z,98337.34
2018-07-23T13:31:00.030Z,98340.26
2018-07-23T13:33:29.956Z,98336.97
2018-07-23T13:35:59.410Z,98336.09
2018-07-23T13:38:28.933Z,98344.88
2018-07-23T13:40:58.339Z,98342.11
2018-07-23T13:43:27.760Z,98344.84
2018-07-23T13:45:57.185Z,98337.50
2018-07-23T13:48:26.649Z,98335.47
2018-07-23T13:50:56.088Z,98339.72
2018-07-23T13:53:25.505Z,98331.50
2018-07-23T13:55:54.934Z,98340.89
2018-07-23T13:58:24.366Z,98328.19
2018-07-23T14:00:54.001Z,98330.47
2018-07-23T14:03:23.498Z,98336.32
2018-07-23T14:05:53.061Z,98327.88
2018-07-23T14:08:22.459Z,98330.69
2018-07-23T14:10:51.899Z,98325.70
2018-07-23T14:13:21.454Z,98324.16
2018-07-23T14:15:50.854Z,98320.86
2018-07-23T14:18:20.275Z,98321.83
2018-07-23T14:20:49.775Z,98316.10
2018-07-23T14:23:19.191Z,98315.72
2018-07-23T14:25:48.743Z,98315.60
2018-07-23T14:28:18.102Z,98315.81
2018-07-23T14:30:48.585Z,98308.85
2018-07-23T14:33:18.012Z,98306.63
2018-07-23T14:35:47.484Z,98309.96
2018-07-23T14:38:16.932Z,98308.82
2018-07-23T14:40:46.436Z,98313.36
2018-07-23T14:43:15.930Z,98315.99
2018-07-23T14:45:45.432Z,98307.11
2018-07-23T14:48:14.918Z,98311.16
2018-07-23T14:50:44.392Z,98307.38
2018-07-23T14:53:13.826Z,98312.89
2018-07-23T14:55:43.228Z,98303.59
2018-07-23T14:58:12.688Z,98309.08
2018-07-23T15:00:42.111Z,98310.30
2018-07-23T15:03:11.562Z,98306.70
2018-07-23T15:05:41.092Z,98303.55
2018-07-23T15:08:10.530Z,98301.23
2018-07-23T15:10:40.044Z,98301.03
2018-07-23T15:13:09.506Z,98302.97
2018-07-23T15:15:38.954Z,98306.79
2018-07-23T15:18:08.359Z,98311.72
2018-07-23T15:20:37.774Z,98305.28
2018-07-23T15:23:07.454Z,98308.44
2018-07-23T15:25:36.901Z,98308.45
2018-07-23T15:28:07.512Z,98309.84
2018-07-23T15:30:36.924Z,98308.81
2018-07-23T15:33:06.462Z,98302.11
2018-07-23T15:35:35.803Z,98302.05
2018-07-23T15:38:06.081Z,98303.89
2018-07-23T15:40:35.538Z,98300.39
2018-07-23T15:43:05.048Z,98300.77
2018-07-23T15:45:34.630Z,98303.72
2018-07-23T15:48:04.027Z,98300.81
2018-07-23T15:50:33.459Z,98300.22
2018-07-23T15:53:03.504Z,98302.97
2018-07-23T15:55:32.924Z,98295.75
2018-07-23T15:58:02.325Z,98295.23
2018-07-23T16:00:31.783Z,98287.19
2018-07-23T16:03:01.285Z,98288.48
2018-07-23T16:05:30.793Z,98281.49
2018-07-23T16:08:00.362Z,98292.59
2018-07-23T16:10:29.816Z,98282.65
2018-07-23T16:12:59.275Z,98283.22
2018-07-23T16:15:28.723Z,98280.33
2018-07-23T16:17:58.142Z,98289.55
2018-07-23T16:20:27.645Z,98275.42
2018-07-23T16:22:57.055Z,98280.47
2018-07-23T16:25:26.522Z,98274.91
2018-07-23T16:27:55.954Z,98280.29
2018-07-23T16:30:25.433Z,98273.92
2018-07-23T16:32:54.934Z,98272.58
2018-07-23T16:35:24.467Z,98275.03
2018-07-23T16:37:53.958Z,98273.64
2018-07-23T16:40:23.342Z,98271.16
2018-07-23T16:42:52.893Z,98267.22
2018-07-23T16:45:22.372Z,98272.91
2018-07-23T16:47:51.862Z,98272.47
2018-07-23T16:50:21.343Z,98276.77
2018-07-23T16:52:50.852Z,98272.13
2018-07-23T16:55:20.309Z,98273.06
2018-07-23T16:57:49.753Z,98270.44
2018-07-23T17:00:19.257Z,98275.55
2018-07-23T17:02:48.640Z,98277.98
2018-07-23T17:05:18.107Z,98281.77
2018-07-23T17:07:47.580Z,98279.75
2018-07-23T17:10:17.004Z,98282.14
2018-07-23T17:12:46.975Z,98281.67
2018-07-23T17:15:16.516Z,98278.97
2018-07-23T17:17:46.017Z,98276.53
2018-07-23T17:20:15.443Z,98275.56
2018-07-23T17:22:44.851Z,98281.94
2018-07-23T17:25:14.335Z,98284.09
2018-07-23T17:27:43.765Z,98285.06
2018-07-23T17:30:13.189Z,98281.67
2018-07-23T17:32:42.795Z,98287.27
2018-07-23T17:35:12.292Z,98288.28
2018-07-23T17:37:41.425Z,98283.00
2018-07-23T17:40:10.934Z,98283.82
2018-07-23T17:42:41.217Z,98282.28
2018-07-23T17:45:10.679Z,98282.84
2018-07-23T17:47:40.127Z,98278.05
2018-07-23T17:50:09.639Z,98277.63
2018-07-23T17:52:39.365Z,98277.84
2018-07-23T17:55:09.848Z,98284.62
2018-07-23T17:57:39.312Z,98279.13
2018-07-23T18:00:08.857Z,98285.37
2018-07-23T18:02:38.290Z,98280.45
2018-07-23T18:05:07.470Z,98286.02
2018-07-23T18:07:36.888Z,98287.71
2018-07-23T18:10:07.654Z,98284.97
2018-07-23T18:12:37.115Z,98285.29
2018-07-23T18:15:07.171Z,98285.14
2018-07-23T18:17:36.845Z,98280.72
2018-07-23T18:20:05.972Z,98284.59
2018-07-23T18:22:35.525Z,98282.58
2018-07-23T18:25:05.341Z,98283.48
2018-07-23T18:27:34.766Z,98281.40
2018-07-23T18:30:05.372Z,98287.63
2018-07-23T18:32:34.842Z,98290.66
2018-07-23T18:35:05.143Z,98293.92
2018-07-23T18:37:34.725Z,98297.48
2018-07-23T18:40:04.381Z,98294.05
2018-07-23T18:42:33.849Z,98300.84
2018-07-23T18:45:03.271Z,98299.00
2018-07-23T18:47:32.721Z,98295.28
2018-07-23T18:50:02.256Z,98306.30
2018-07-23T18:52:31.837Z,98302.30
2018-07-23T18:55:02.110Z,98305.29
2018-07-23T18:57:31.575Z,98309.59
2018-07-23T19:00:02.729Z,98305.62
2018-07-23T19:02:32.075Z,98308.34
2018-07-23T19:05:02.334Z,98312.64
2018-07-23T19:07:31.776Z,98312.64
2018-07-23T19:10:01.301Z,98310.54
2018-07-23T19:12:30.762Z,98318.02
2018-07-23T19:15:00.268Z,98315.63
2018-07-23T19:17:29.825Z,98321.25
2018-07-23T19:19:59.219Z,98318.05
2018-07-23T19:22:29.477Z,98319.66
2018-07-23T19:24:58.885Z,98320.20
2018-07-23T19:27:28.316Z,98323.95
2018-07-23T19:29:57.787Z,98327.42
2018-07-23T19:32:27.394Z,98331.95
2018-07-23T19:34:56.803Z,98331.41
2018-07-23T19:37:27.145Z,98332.47
2018-07-23T19:39:56.617Z,98332.19
2018-07-23T19:42:26.055Z,98332.70
2018-07-23T19:44:55.490Z,98334.84
2018-07-23T19:47:25.053Z,98336.97
2018-07-23T19:49:54.593Z,98336.14
2018-07-23T19:52:24.067Z,98343.88
2018-07-23T19:54:53.460Z,98341.45
2018-07-23T19:57:22.864Z,98344.06
2018-07-23T19:59:52.459Z,98340.02
2018-07-23T20:02:21.861Z,98347.22
2018-07-23T20:04:51.288Z,98349.05
2018-07-23T20:07:20.700Z,98343.95
2018-07-23T20:09:50.148Z,98346.05
2018-07-23T20:12:19.610Z,98351.66
2018-07-23T20:14:49.017Z,98347.09
2018-07-23T20:17:18.437Z,98346.00
2018-07-23T20:19:47.888Z,98344.14
2018-07-23T20:22:19.057Z,98347.05
2018-07-23T20:24:48.465Z,98347.00
2018-07-23T20:27:17.862Z,98345.66
2018-07-23T20:29:47.338Z,98345.32
2018-07-23T20:32:16.912Z,98342.86
2018-07-23T20:34:46.409Z,98355.65
2018-07-23T20:37:15.916Z,98355.06
2018-07-23T20:39:45.317Z,98354.48
2018-07-23T20:42:14.777Z,98357.62
2018-07-23T20:44:44.279Z,98357.08
2018-07-23T20:47:13.699Z,98362.87
2018-07-23T20:49:43.156Z,98368.20
2018-07-23T20:52:12.770Z,98363.61
2018-07-23T20:54:42.209Z,98365.95
2018-07-23T20:57:11.637Z,98370.98
2018-07-23T20:59:41.041Z,98372.84
2018-07-23T21:02:10.536Z,98366.62
2018-07-23T21:04:40.038Z,98368.75
2018-07-23T21:07:09.437Z,98367.36
2018-07-23T21:09:38.922Z,98367.05
2018-07-23T21:12:08.366Z,98376.03
2018-07-23T21:14:37.888Z,98373.05
2018-07-23T21:17:07.435Z,98373.55
2018-07-23T21:19:36.897Z,98373.20
2018-07-23T21:22:06.449Z,98377.98
2018-07-23T21:24:35.902Z,98376.34
2018-07-23T21:27:05.462Z,98377.37
2018-07-23T21:29:34.945Z,98370.69
2018-07-23T21:32:04.444Z,98370.13
2018-07-23T21:34:33.860Z,98371.43
2018-07-23T21:37:03.320Z,98372.15
2018-07-23T21:39:32.850Z,98373.17
2018-07-23T21:42:02.266Z,98370.98
2018-07-23T21:44:31.627Z,98374.38
2018-07-23T21:47:01.872Z,98380.70
2018-07-23T21:49:31.307Z,98379.37
2018-07-23T21:52:00.786Z,98374.27
2018-07-23T21:54:31.235Z,98373.95
2018-07-23T21:57:00.693Z,98377.11
2018-07-23T21:59:30.199Z,98377.63
2018-07-23T22:02:00.552Z,98375.98
2018-07-23T22:04:30.057Z,98373.77
2018-07-23T22:06:59.514Z,98378.28
2018-07-23T22:09:28.983Z,98376.31
2018-07-23T22:11:58.390Z,98376.23
2018-07-23T22:14:27.767Z,98377.19
2018-07-23T22:16:57.184Z,98372.60
2018-07-23T22:19:26.603Z,98370.17
2018-07-23T22:21:56.052Z,98375.98
2018-07-23T22:24:25.483Z,98379.45
2018-07-23T22:26:55.001Z,98380.48
2018-07-23T22:29:24.440Z,98381.88
2018-07-23T22:31:53.885Z,98380.23
2018-07-23T22:34:23.359Z,98382.57
2018-07-23T22:36:52.819Z,98377.69
2018-07-23T22:39:22.278Z,98382.94
2018-07-23T22:41:51.693Z,98376.14
2018-07-23T22:44:21.199Z,98371.25
2018-07-23T22:46:50.881Z,98372.33
2018-07-23T22:49:20.327Z,98371.48
2018-07-23T22:51:49.796Z,98379.91
2018-07-23T22:54:19.195Z,98371.06
2018-07-23T22:56:49.317Z,98374.44
2018-07-23T22:59:18.709Z,98370.09
2018-07-23T23:01:48.163Z,98371.39
2018-07-23T23:04:17.586Z,98367.92
2018-07-23T23:06:47.044Z,98369.52
2018-07-23T23:09:16.485Z,98370.52
2018-07-23T23:11:45.939Z,98381.07
2018-07-23T23:14:15.412Z,98381.07
2018-07-23T23:16:44.877Z,98377.34
2018-07-23T23:19:14.346Z,98376.53
2018-07-23T23:21:43.802Z,98372.23
2018-07-23T23:24:14.285Z,98374.55
2018-07-23T23:26:43.729Z,98372.05
2018-07-23T23:29:13.714Z,98372.53
2018-07-23T23:31:43.163Z,98370.63
2018-07-23T23:34:12.584Z,98365.79
2018-07-23T23:36:42.004Z,98362.48
2018-07-23T23:39:12.502Z,98360.59
2018-07-23T23:41:41.999Z,98363.92
2018-07-23T23:44:11.445Z,98360.94
2018-07-23T23:46:40.853Z,98364.54
2018-07-23T23:49:10.353Z,98361.56
2018-07-23T23:51:39.737Z,98358.57
2018-07-23T23:54:09.148Z,98356.62
2018-07-23T23:56:38.614Z,98359.05
2018-07-23T23:59:08.074Z,98353.19
